createdAt,value
2023-05-10T00:01:00.472Z,71.22
2023-05-10T00:03:27.907Z,73.97
2023-05-10T00:05:55.648Z,55.08
2023-05-10T00:08:36.863Z,73.88
2023-05-10T00:11:09.118Z,63.85
2023-05-10T00:13:39.087Z,60.63
2023-05-10T00:16:09.544Z,77.93
2023-05-10T00:18:36.463Z,61.53
2023-05-10T00:21:03.304Z,61.80
2023-05-10T00:23:30.421Z,56.85
2023-05-10T00:26:10.086Z,64.63
2023-05-10T00:28:38.263Z,60.95
2023-05-10T00:31:08.293Z,62.15
2023-05-10T00:33:35.153Z,58.78
2023-05-10T00:36:02.443Z,58.42
2023-05-10T00:38:29.444Z,57.30
2023-05-10T00:41:04.510Z,51.67
2023-05-10T00:43:37.198Z,55.13
2023-05-10T00:46:07.539Z,45.03
2023-05-10T00:48:35.089Z,48.70
2023-05-10T00:51:08.911Z,47.88
2023-05-10T00:53:36.361Z,54.22
2023-05-10T00:56:04.542Z,50.05
2023-05-10T00:58:32.206Z,47.30
2023-05-10T01:00:59.619Z,47.60
2023-05-10T01:03:26.688Z,46.47
2023-05-10T01:05:53.515Z,44.33
2023-05-10T01:08:21.324Z,53.97
2023-05-10T01:10:50.158Z,44.55
2023-05-10T01:13:31.730Z,45.20
2023-05-10T01:15:58.866Z,45.55
2023-05-10T01:18:25.968Z,47.08
2023-05-10T01:21:00.253Z,48.10
2023-05-10T01:23:30.151Z,45.42
2023-05-10T01:26:25.709Z,48.97
2023-05-10T01:29:08.911Z,48.95
2023-05-10T01:31:54.731Z,51.17
2023-05-10T01:34:26.609Z,46.17
2023-05-10T01:36:59.658Z,54.60
2023-05-10T01:39:33.255Z,55.08
2023-05-10T01:42:06.159Z,56.72
2023-05-10T01:44:52.392Z,53.22
2023-05-10T01:49:48.880Z,61.15
2023-05-10T01:52:18.432Z,62.83
2023-05-10T01:55:05.961Z,56.28
2023-05-10T01:57:37.113Z,50.22
2023-05-10T02:00:05.656Z,60.58
2023-05-10T02:02:44.264Z,55.65
2023-05-10T02:05:13.134Z,49.42
2023-05-10T02:07:40.442Z,50.67
2023-05-10T02:10:09.483Z,58.47
2023-05-10T02:12:37.509Z,59.72
2023-05-10T02:15:07.105Z,60.35
2023-05-10T02:17:35.413Z,61.58
2023-05-10T02:20:06.235Z,49.60
2023-05-10T02:22:34.072Z,51.38
2023-05-10T02:25:02.394Z,60.05
2023-05-10T02:27:30.532Z,55.80
2023-05-10T02:29:59.250Z,56.10
2023-05-10T02:32:27.421Z,63.22
2023-05-10T02:34:55.466Z,67.22
2023-05-10T02:37:22.898Z,58.20
2023-05-10T02:39:54.943Z,53.45
2023-05-10T02:42:25.295Z,66.90
2023-05-10T02:44:57.176Z,57.03
2023-05-10T02:47:23.999Z,58.63
2023-05-10T02:49:51.036Z,56.47
2023-05-10T02:52:28.657Z,60.80
2023-05-10T02:54:56.532Z,55.17
2023-05-10T02:57:26.375Z,58.60
2023-05-10T02:59:53.437Z,57.97
2023-05-10T03:02:21.573Z,60.45
2023-05-10T03:04:48.716Z,50.88
2023-05-10T03:07:15.898Z,65.95
2023-05-10T03:09:43.292Z,60.80
2023-05-10T03:12:16.675Z,63.35
2023-05-10T03:14:51.374Z,64.38
2023-05-10T03:17:31.849Z,57.97
2023-05-10T03:20:03.895Z,62.70
2023-05-10T03:22:45.967Z,72.72
2023-05-10T03:25:14.332Z,60.47
2023-05-10T03:27:43.859Z,63.47
2023-05-10T03:30:12.382Z,57.38
2023-05-10T03:32:39.380Z,68.80
2023-05-10T03:35:14.271Z,69.10
2023-05-10T03:37:41.966Z,59.58
2023-05-10T03:40:09.557Z,67.15
2023-05-10T03:42:38.933Z,55.88
2023-05-10T03:45:06.987Z,68.30
2023-05-10T03:47:33.994Z,71.65
2023-05-10T03:50:00.998Z,59.60
2023-05-10T03:52:27.997Z,64.22
2023-05-10T03:54:55.812Z,64.10
2023-05-10T03:57:24.243Z,56.45
2023-05-10T03:59:51.188Z,64.55
2023-05-10T04:02:18.258Z,60.47
2023-05-10T04:04:45.263Z,66.28
2023-05-10T04:07:12.324Z,69.68
2023-05-10T04:09:39.160Z,59.08
2023-05-10T04:12:07.960Z,60.28
2023-05-10T04:14:35.739Z,57.38
2023-05-10T04:17:02.661Z,63.72
2023-05-10T04:19:30.592Z,73.72
2023-05-10T04:21:57.804Z,71.55
2023-05-10T04:24:25.060Z,65.00
2023-05-10T04:26:52.727Z,73.95
2023-05-10T04:29:25.212Z,68.45
2023-05-10T04:31:52.338Z,59.88
2023-05-10T04:34:19.736Z,71.70
2023-05-10T04:36:46.685Z,63.42
2023-05-10T04:39:15.400Z,58.50
2023-05-10T04:41:43.645Z,59.85
2023-05-10T04:44:10.725Z,62.65
2023-05-10T04:46:40.870Z,65.82
2023-05-10T04:49:08.925Z,77.90
2023-05-10T04:51:37.681Z,68.60
2023-05-10T04:54:07.773Z,71.25
2023-05-10T04:56:37.484Z,89.70
2023-05-10T04:59:04.381Z,80.28
2023-05-10T05:01:31.400Z,89.45
2023-05-10T05:03:58.483Z,77.68
2023-05-10T05:06:26.132Z,64.50
2023-05-10T05:08:53.002Z,71.20
2023-05-10T05:11:22.718Z,88.40
2023-05-10T05:13:49.936Z,84.07
2023-05-10T05:16:16.737Z,83.85
2023-05-10T05:18:44.108Z,88.93
2023-05-10T05:21:21.048Z,96.45
2023-05-10T05:23:48.358Z,81.07
2023-05-10T05:26:16.040Z,78.80
2023-05-10T05:28:43.395Z,75.22
2023-05-10T05:31:10.952Z,87.70
2023-05-10T05:33:38.171Z,75.32
2023-05-10T05:36:07.333Z,92.13
2023-05-10T05:38:34.583Z,85.68
2023-05-10T05:41:12.403Z,82.18
2023-05-10T05:43:39.296Z,76.78
2023-05-10T05:46:09.726Z,85.45
2023-05-10T05:48:36.795Z,95.82
2023-05-10T05:51:05.847Z,77.95
2023-05-10T05:53:34.432Z,85.13
2023-05-10T05:56:05.040Z,88.38
2023-05-10T05:58:35.304Z,96.95
2023-05-10T06:01:02.408Z,89.68
2023-05-10T06:03:29.375Z,107.60
2023-05-10T06:05:56.431Z,104.35
2023-05-10T06:08:23.521Z,86.85
2023-05-10T06:10:50.434Z,76.93
2023-05-10T06:13:17.690Z,92.78
2023-05-10T06:15:44.524Z,77.85
2023-05-10T06:18:11.802Z,66.80
2023-05-10T06:20:38.634Z,66.00
2023-05-10T06:23:05.462Z,66.07
2023-05-10T06:25:32.351Z,71.90
2023-05-10T06:27:59.428Z,69.78
2023-05-10T06:30:29.367Z,64.82
2023-05-10T06:32:56.864Z,75.13
2023-05-10T06:35:24.237Z,76.28
2023-05-10T06:37:51.468Z,83.85
2023-05-10T06:40:18.595Z,76.07
2023-05-10T06:42:46.497Z,78.88
2023-05-10T06:45:13.879Z,86.07
2023-05-10T06:47:41.476Z,75.18
2023-05-10T06:50:12.455Z,71.38
2023-05-10T06:52:40.128Z,79.13
2023-05-10T06:55:07.444Z,63.50
2023-05-10T06:57:34.389Z,62.97
2023-05-10T07:00:01.310Z,42.45
2023-05-10T07:02:28.340Z,39.90
2023-05-10T07:04:55.512Z,37.45
2023-05-10T07:07:22.552Z,40.72
2023-05-10T07:09:50.956Z,33.28
2023-05-10T07:12:18.068Z,29.67
2023-05-10T07:14:45.147Z,27.23
2023-05-10T07:17:12.150Z,30.00
2023-05-10T07:19:39.191Z,28.55
2023-05-10T07:22:06.233Z,28.50
2023-05-10T07:24:34.152Z,29.42
2023-05-10T07:27:01.120Z,28.38
2023-05-10T07:29:28.225Z,28.88
2023-05-10T07:31:57.924Z,27.27
2023-05-10T07:34:26.223Z,27.38
2023-05-10T07:36:53.329Z,20.83
2023-05-10T07:39:27.237Z,33.92
2023-05-10T07:41:55.287Z,26.55
2023-05-10T07:44:22.439Z,27.45
2023-05-10T07:46:49.806Z,33.70
2023-05-10T07:49:17.048Z,28.88
2023-05-10T07:51:46.320Z,36.72
2023-05-10T07:54:13.879Z,40.20
2023-05-10T07:56:48.115Z,39.45
2023-05-10T07:59:25.936Z,36.90
2023-05-10T08:01:52.932Z,36.83
2023-05-10T08:04:19.923Z,38.97
2023-05-10T08:06:46.899Z,41.30
2023-05-10T08:09:19.996Z,40.35
2023-05-10T08:11:46.894Z,44.22
2023-05-10T08:14:13.740Z,39.67
2023-05-10T08:16:44.397Z,35.40
2023-05-10T08:19:11.320Z,39.28
2023-05-10T08:21:38.656Z,43.42
2023-05-10T08:24:06.049Z,39.03
2023-05-10T08:26:37.874Z,47.08
2023-05-10T08:29:04.776Z,42.97
2023-05-10T08:31:31.782Z,38.63
2023-05-10T08:34:08.146Z,44.90
2023-05-10T08:36:44.557Z,36.55
2023-05-10T08:39:22.777Z,36.58
2023-05-10T08:41:55.352Z,33.13
2023-05-10T08:44:26.526Z,38.13
2023-05-10T08:46:54.738Z,34.75
2023-05-10T08:49:22.521Z,32.83
2023-05-10T08:51:52.724Z,29.95
2023-05-10T08:54:20.763Z,26.60
2023-05-10T08:56:49.707Z,32.83
2023-05-10T08:59:24.574Z,31.90
2023-05-10T09:01:52.182Z,24.02
2023-05-10T09:04:19.658Z,33.38
2023-05-10T09:06:46.781Z,28.08
2023-05-10T09:09:13.781Z,14.98
2023-05-10T09:11:40.887Z,18.27
2023-05-10T09:14:08.105Z,15.10
2023-05-10T09:16:41.506Z,13.48
2023-05-10T09:19:09.776Z,16.83
2023-05-10T09:21:40.753Z,15.77
2023-05-10T09:24:08.476Z,15.73
2023-05-10T09:26:36.953Z,20.08
2023-05-10T09:29:04.132Z,20.20
2023-05-10T09:31:47.856Z,21.27
2023-05-10T09:34:31.818Z,18.65
2023-05-10T09:37:01.795Z,16.75
2023-05-10T09:39:36.461Z,14.32
2023-05-10T09:42:05.007Z,19.98
2023-05-10T09:44:32.360Z,14.57
2023-05-10T09:46:59.921Z,12.18
2023-05-10T09:49:27.316Z,14.98
2023-05-10T09:52:01.102Z,14.35
2023-05-10T09:54:28.224Z,12.82
2023-05-10T09:56:55.006Z,20.40
2023-05-10T09:59:23.028Z,16.23
2023-05-10T10:01:53.472Z,19.70
2023-05-10T10:04:22.610Z,17.05
2023-05-10T10:06:59.956Z,14.65
2023-05-10T10:09:28.113Z,15.38
2023-05-10T10:11:55.246Z,16.00
2023-05-10T10:14:23.764Z,15.35
2023-05-10T10:17:05.844Z,15.35
2023-05-10T10:19:36.146Z,18.20
2023-05-10T10:22:03.930Z,18.60
2023-05-10T10:24:32.746Z,16.23
2023-05-10T10:27:18.350Z,16.42
2023-05-10T10:29:51.573Z,15.00
2023-05-10T10:32:26.850Z,12.73
2023-05-10T10:34:55.127Z,14.23
2023-05-10T10:37:21.921Z,12.93
2023-05-10T10:39:51.589Z,15.25
2023-05-10T10:42:38.950Z,13.65
2023-05-10T10:45:15.458Z,13.07
2023-05-10T10:47:44.269Z,13.18
2023-05-10T10:50:13.865Z,11.25
2023-05-10T10:52:41.696Z,14.10
2023-05-10T10:55:19.346Z,11.73
2023-05-10T10:58:01.720Z,15.57
2023-05-10T11:00:31.808Z,12.23
2023-05-10T11:03:05.495Z,14.00
2023-05-10T11:05:38.021Z,12.20
2023-05-10T11:08:12.493Z,10.00
2023-05-10T11:10:40.334Z,10.75
2023-05-10T11:13:07.921Z,11.15
2023-05-10T11:15:36.664Z,10.80
2023-05-10T11:18:24.434Z,11.10
2023-05-10T11:20:52.462Z,11.00
2023-05-10T11:23:20.266Z,11.30
2023-05-10T11:25:47.426Z,11.75
2023-05-10T11:28:14.451Z,12.25
2023-05-10T11:30:42.160Z,12.50
2023-05-10T11:33:09.953Z,11.50
2023-05-10T11:35:43.320Z,12.25
2023-05-10T11:38:11.301Z,12.45
2023-05-10T11:40:38.675Z,13.75
2023-05-10T11:43:06.732Z,12.50
2023-05-10T11:45:34.206Z,12.27
2023-05-10T11:48:01.369Z,13.35
2023-05-10T11:50:28.900Z,15.88
2023-05-10T11:52:56.892Z,15.48
2023-05-10T11:55:25.270Z,15.00
2023-05-10T11:57:55.611Z,17.40
2023-05-10T12:00:22.662Z,17.13
2023-05-10T12:02:50.320Z,18.75
2023-05-10T12:05:17.663Z,18.92
2023-05-10T12:07:44.879Z,20.67
2023-05-10T12:10:15.831Z,23.50
2023-05-10T12:12:44.491Z,24.23
2023-05-10T12:15:12.050Z,23.33
2023-05-10T12:17:42.684Z,26.65
2023-05-10T12:20:18.007Z,23.63
2023-05-10T12:22:45.882Z,25.27
2023-05-10T12:25:13.145Z,28.40
2023-05-10T12:27:40.273Z,25.50
2023-05-10T12:30:07.491Z,23.23
2023-05-10T12:32:48.136Z,24.67
2023-05-10T12:35:16.926Z,27.58
2023-05-10T12:37:44.634Z,25.52
2023-05-10T12:40:12.499Z,20.70
2023-05-10T12:42:40.852Z,22.77
2023-05-10T12:45:09.184Z,24.58
2023-05-10T12:47:36.235Z,23.10
2023-05-10T12:50:03.788Z,23.88
2023-05-10T12:52:32.639Z,22.10
2023-05-10T12:55:00.390Z,23.75
2023-05-10T12:57:28.818Z,25.42
2023-05-10T12:59:56.046Z,14.18
2023-05-10T13:02:24.083Z,19.80
2023-05-10T13:04:51.441Z,16.10
2023-05-10T13:07:18.478Z,13.80
2023-05-10T13:09:45.576Z,17.10
2023-05-10T13:12:12.414Z,12.95
2023-05-10T13:14:41.314Z,18.52
2023-05-10T13:17:08.448Z,16.63
2023-05-10T13:19:35.507Z,16.25
2023-05-10T13:22:02.372Z,14.32
2023-05-10T13:24:29.284Z,14.57
2023-05-10T13:26:56.299Z,14.93
2023-05-10T13:29:23.674Z,12.82
2023-05-10T13:31:51.365Z,13.27
2023-05-10T13:34:21.476Z,17.27
2023-05-10T13:36:49.886Z,12.20
2023-05-10T13:39:16.784Z,13.10
2023-05-10T13:41:45.494Z,14.38
2023-05-10T13:44:13.628Z,15.40
2023-05-10T13:46:44.704Z,25.95
2023-05-10T13:49:11.732Z,17.02
2023-05-10T13:51:39.226Z,18.88
2023-05-10T13:54:06.078Z,17.20
2023-05-10T13:56:32.892Z,15.38
2023-05-10T13:59:00.663Z,14.98
2023-05-10T14:01:31.539Z,16.02
2023-05-10T14:04:00.630Z,16.00
2023-05-10T14:06:28.480Z,18.08
2023-05-10T14:08:56.371Z,20.80
2023-05-10T14:11:24.866Z,17.60
2023-05-10T14:13:52.177Z,21.42
2023-05-10T14:16:19.220Z,19.02
2023-05-10T14:18:46.635Z,17.92
2023-05-10T14:21:13.602Z,15.95
2023-05-10T14:23:40.869Z,24.05
2023-05-10T14:26:09.078Z,17.67
2023-05-10T14:28:36.219Z,18.65
2023-05-10T14:31:03.748Z,21.05
2023-05-10T14:33:30.596Z,21.80
2023-05-10T14:35:58.362Z,24.80
2023-05-10T14:38:25.283Z,17.92
2023-05-10T14:40:52.427Z,15.00
2023-05-10T14:43:20.291Z,14.57
2023-05-10T14:45:48.706Z,16.73
2023-05-10T14:48:18.283Z,14.30
2023-05-10T14:50:46.432Z,13.02
2023-05-10T14:53:13.584Z,14.52
2023-05-10T14:55:40.591Z,16.23
2023-05-10T14:58:07.572Z,13.52
2023-05-10T15:00:35.828Z,15.35
2023-05-10T15:03:03.470Z,13.27
2023-05-10T15:05:33.862Z,15.38
2023-05-10T15:08:01.582Z,12.93
2023-05-10T15:10:28.722Z,12.07
2023-05-10T15:12:56.045Z,14.88
2023-05-10T15:15:24.092Z,14.57
2023-05-10T15:17:51.528Z,14.15
2023-05-10T15:20:18.582Z,17.85
2023-05-10T15:22:45.712Z,14.27
2023-05-10T15:25:14.210Z,13.27
2023-05-10T15:27:44.802Z,15.60
2023-05-10T15:30:11.898Z,15.48
2023-05-10T15:32:40.859Z,12.48
2023-05-10T15:35:09.670Z,14.88
2023-05-10T15:37:36.737Z,15.13
2023-05-10T15:40:05.092Z,15.73
2023-05-10T15:42:33.843Z,12.43
2023-05-10T15:45:00.771Z,15.45
2023-05-10T15:47:30.965Z,18.15
2023-05-10T15:49:58.874Z,15.77
2023-05-10T15:52:25.881Z,15.23
2023-05-10T15:54:52.968Z,13.50
2023-05-10T15:57:20.245Z,13.65
2023-05-10T15:59:47.984Z,14.55
2023-05-10T16:02:16.182Z,15.93
2023-05-10T16:04:44.477Z,13.70
2023-05-10T16:07:12.581Z,14.02
2023-05-10T16:09:40.003Z,14.43
2023-05-10T16:12:06.830Z,15.82
2023-05-10T16:14:34.219Z,11.00
2023-05-10T16:17:01.465Z,11.07
2023-05-10T16:19:29.788Z,10.60
2023-05-10T16:21:57.415Z,10.25
2023-05-10T16:24:25.014Z,11.05
2023-05-10T16:26:52.610Z,10.70
2023-05-10T16:29:21.295Z,11.38
2023-05-10T16:31:48.765Z,12.38
2023-05-10T16:34:16.502Z,13.88
2023-05-10T16:36:44.395Z,15.18
2023-05-10T16:39:12.388Z,12.18
2023-05-10T16:41:39.722Z,12.98
2023-05-10T16:44:07.189Z,10.05
2023-05-10T16:46:34.712Z,12.20
2023-05-10T16:49:02.951Z,9.90
2023-05-10T16:51:30.082Z,10.05
2023-05-10T16:53:57.791Z,9.75
2023-05-10T16:56:25.599Z,10.60
2023-05-10T16:58:54.049Z,11.68
2023-05-10T17:01:23.208Z,14.63
2023-05-10T17:03:52.900Z,11.00
2023-05-10T17:06:19.888Z,13.90
2023-05-10T17:08:47.014Z,12.13
2023-05-10T17:11:13.905Z,14.98
2023-05-10T17:13:40.842Z,16.42
2023-05-10T17:16:08.807Z,12.60
2023-05-10T17:18:37.301Z,15.70
2023-05-10T17:21:04.658Z,17.25
2023-05-10T17:23:35.364Z,16.02
2023-05-10T17:26:04.052Z,14.38
2023-05-10T17:28:31.176Z,12.55
2023-05-10T17:30:58.517Z,13.07
2023-05-10T17:33:26.084Z,13.45
2023-05-10T17:35:52.977Z,13.25
2023-05-10T17:38:19.828Z,13.20
2023-05-10T17:40:46.718Z,13.05
2023-05-10T17:43:13.486Z,11.80
2023-05-10T17:45:40.626Z,11.75
2023-05-10T17:48:08.042Z,12.98
2023-05-10T17:50:35.439Z,10.85
2023-05-10T17:53:03.003Z,11.00
2023-05-10T17:55:30.865Z,12.43
2023-05-10T17:57:59.688Z,12.35
2023-05-10T18:00:26.868Z,12.63
2023-05-10T18:02:53.907Z,13.23
2023-05-10T18:05:21.347Z,12.23
2023-05-10T18:07:48.640Z,13.88
2023-05-10T18:10:15.531Z,15.27
2023-05-10T18:12:42.551Z,15.10
2023-05-10T18:15:09.864Z,16.60
2023-05-10T18:17:36.918Z,17.67
2023-05-10T18:20:04.127Z,16.27
2023-05-10T18:22:31.032Z,19.02
2023-05-10T18:24:57.898Z,17.38
2023-05-10T18:27:25.100Z,17.65
2023-05-10T18:29:52.255Z,18.73
2023-05-10T18:32:19.146Z,16.70
2023-05-10T18:34:45.977Z,19.38
2023-05-10T18:37:13.732Z,17.98
2023-05-10T18:39:40.987Z,15.77
2023-05-10T18:42:08.741Z,17.20
2023-05-10T18:44:35.684Z,16.73
2023-05-10T18:47:02.584Z,19.92
2023-05-10T18:49:29.676Z,16.42
2023-05-10T18:51:57.049Z,20.52
2023-05-10T18:54:24.090Z,16.90
2023-05-10T18:56:51.014Z,16.25
2023-05-10T18:59:30.830Z,15.85
2023-05-10T19:01:58.868Z,16.67
2023-05-10T19:04:26.048Z,14.82
2023-05-10T19:06:53.037Z,14.23
2023-05-10T19:09:21.378Z,13.45
2023-05-10T19:11:51.963Z,11.98
2023-05-10T19:14:23.089Z,13.07
2023-05-10T19:16:53.079Z,14.15
2023-05-10T19:19:24.211Z,15.13
2023-05-10T19:21:51.994Z,13.25
2023-05-10T19:24:29.675Z,17.58
2023-05-10T19:26:57.864Z,15.20
2023-05-10T19:29:27.279Z,9.82
2023-05-10T19:31:54.606Z,13.05
2023-05-10T19:34:23.839Z,15.23
2023-05-10T19:36:51.503Z,12.43
2023-05-10T19:39:22.666Z,15.07
2023-05-10T19:41:50.663Z,16.58
2023-05-10T19:44:28.091Z,15.82
2023-05-10T19:46:55.337Z,19.27
2023-05-10T19:49:22.446Z,17.92
2023-05-10T19:51:49.673Z,13.85
2023-05-10T19:54:19.422Z,15.88
2023-05-10T19:56:49.982Z,17.40
2023-05-10T19:59:18.169Z,16.17
2023-05-10T20:01:47.857Z,15.40
2023-05-10T20:04:14.802Z,18.15
2023-05-10T20:06:45.162Z,16.55
2023-05-10T20:09:12.337Z,18.08
2023-05-10T20:11:40.379Z,18.38
2023-05-10T20:14:07.564Z,17.23
2023-05-10T20:16:34.602Z,17.90
2023-05-10T20:19:01.787Z,19.48
2023-05-10T20:21:28.876Z,18.90
2023-05-10T20:23:55.885Z,19.05
2023-05-10T20:26:27.161Z,18.95
2023-05-10T20:28:56.558Z,19.13
2023-05-10T20:31:26.716Z,20.95
2023-05-10T20:33:55.157Z,21.23
2023-05-10T20:36:22.315Z,20.23
2023-05-10T20:38:50.855Z,21.65
2023-05-10T20:41:18.276Z,18.38
2023-05-10T20:43:45.047Z,21.35
2023-05-10T20:46:12.477Z,21.50
2023-05-10T20:48:39.451Z,17.70
2023-05-10T20:51:09.410Z,20.13
2023-05-10T20:53:37.154Z,20.58
2023-05-10T20:56:04.092Z,19.60
2023-05-10T20:58:31.014Z,25.17
2023-05-10T21:00:57.729Z,21.48
2023-05-10T21:03:24.646Z,22.20
2023-05-10T21:05:51.430Z,26.92
2023-05-10T21:08:18.284Z,23.15
2023-05-10T21:10:45.716Z,26.65
2023-05-10T21:13:12.862Z,26.83
2023-05-10T21:15:39.730Z,24.48
2023-05-10T21:18:06.624Z,25.02
2023-05-10T21:20:33.747Z,25.95
2023-05-10T21:23:00.692Z,23.52
2023-05-10T21:25:27.639Z,22.83
2023-05-10T21:27:55.191Z,24.80
2023-05-10T21:30:25.874Z,24.08
2023-05-10T21:32:55.227Z,29.50
2023-05-10T21:35:31.598Z,24.30
2023-05-10T21:37:58.733Z,28.00
2023-05-10T21:40:26.209Z,27.15
2023-05-10T21:42:53.196Z,25.85
2023-05-10T21:45:20.073Z,28.00
2023-05-10T21:47:47.546Z,28.65
2023-05-10T21:50:14.750Z,33.13
2023-05-10T21:52:44.510Z,24.95
2023-05-10T21:55:11.505Z,38.97
2023-05-10T21:57:38.428Z,29.27
2023-05-10T22:00:07.387Z,33.00
2023-05-10T22:02:34.652Z,35.70
2023-05-10T22:05:03.594Z,37.67
2023-05-10T22:07:32.025Z,38.47
2023-05-10T22:09:59.281Z,34.25
2023-05-10T22:12:26.252Z,33.45
2023-05-10T22:14:59.619Z,36.20
2023-05-10T22:17:37.913Z,38.30
2023-05-10T22:20:06.751Z,36.45
2023-05-10T22:22:33.568Z,38.20
2023-05-10T22:25:00.650Z,31.05
2023-05-10T22:27:27.438Z,32.97
2023-05-10T22:29:54.289Z,31.67
2023-05-10T22:32:21.257Z,40.58
2023-05-10T22:34:48.242Z,38.00
2023-05-10T22:37:17.955Z,40.88
2023-05-10T22:39:52.370Z,32.58
2023-05-10T22:42:22.041Z,34.13
2023-05-10T22:44:48.822Z,39.47
2023-05-10T22:47:16.546Z,40.03
2023-05-10T22:49:43.484Z,34.13
2023-05-10T22:52:10.331Z,41.83
2023-05-10T22:54:37.217Z,43.72
2023-05-10T22:57:04.083Z,37.17
2023-05-10T22:59:30.983Z,43.60
2023-05-10T23:01:57.864Z,35.95
2023-05-10T23:04:24.959Z,40.83
2023-05-10T23:06:51.963Z,36.65
2023-05-10T23:09:19.942Z,43.30
2023-05-10T23:11:49.985Z,36.83
2023-05-10T23:14:19.668Z,38.92
2023-05-10T23:16:48.122Z,41.10
2023-05-10T23:19:14.873Z,42.25
2023-05-10T23:21:42.178Z,39.00
2023-05-10T23:24:12.408Z,41.25
2023-05-10T23:26:39.635Z,36.78
2023-05-10T23:29:06.736Z,37.65
2023-05-10T23:31:34.051Z,45.88
2023-05-10T23:34:00.840Z,44.88
2023-05-10T23:36:28.069Z,42.78
2023-05-10T23:38:54.899Z,43.95
2023-05-10T23:41:40.430Z,41.22
2023-05-10T23:44:24.749Z,42.95
2023-05-10T23:46:51.742Z,44.17
2023-05-10T23:49:18.730Z,45.20
2023-05-10T23:51:49.583Z,40.97
2023-05-10T23:54:20.115Z,42.28
2023-05-10T23:56:52.711Z,41.53
2023-05-10T23:59:25.974Z,45.00
